Cochise — WDD8952 — position and weather

sailwx.info

Track history (hours):
 
Tides and Currents Weather Stations Pressure Air Temp Water Temp Dewpoint Dewpoint Depression Visibility Wind Speed Wind Dir Waves Ship Positions

Cochise

Owner: Sause Bros, Coos Bay, OR. More information available from US FCC via Universal Licensing System and Coast Guard Vessel Documentation Center.

Last reported at 2015-Apr-28 01:20 UTC. Time now 2015-Apr-28 15:56 UTC.
Position N 38°03' W 122°06'.

Length 32 m; draft 4.8 m.

Type: Towing. MMSI: 367304990.

Date/timePositionNaut miles runAvg speedWind from/ knotsBaromVisibWave heightAir tempDewpointWater temp
2015-Apr-28 01:20N 38°03' W 122°06'1 0.7
2015-Apr-28 00:33N 38°03' W 122°07'6 5.7
2015-Apr-27 23:33N 38°04' W 122°14'6 6.1
2015-Apr-27 22:33N 38°02' W 122°21'7 6.6
2015-Apr-27 21:33N 37°57' W 122°27'3 3.2
2015-Apr-27 20:33N 37°54' W 122°26'0 0.1
2015-Apr-27 19:31N 37°54' W 122°26'1 1.0
2015-Apr-27 18:33N 37°55' W 122°25'1 0.7
2015-Apr-27 17:33N 37°55' W 122°25'0 0.3
2015-Apr-27 16:30N 37°55' W 122°25'0 0.0
2015-Apr-27 15:30N 37°55' W 122°25'0 0.0
2015-Apr-27 14:30N 37°55' W 122°25'0 0.0
2015-Apr-27 13:24N 37°55' W 122°25'0 0.0
2015-Apr-27 12:30N 37°55' W 122°25'0 0.0
2015-Apr-27 11:24N 37°55' W 122°25'0 0.0
2015-Apr-27 10:30N 37°55' W 122°25'0 0.0
2015-Apr-27 09:24N 37°55' W 122°25'0 0.0
2015-Apr-27 07:27N 37°55' W 122°25'0 0.0
2015-Apr-27 06:12N 37°55' W 122°25'0 0.0
2015-Apr-27 03:15N 37°55' W 122°25'0 0.0
2015-Apr-27 02:24N 37°55' W 122°25'0 0.0
2015-Apr-27 01:09N 37°55' W 122°25'0 0.0
2015-Apr-27 00:30N 37°55' W 122°25'0 0.0
2015-Apr-26 23:30N 37°55' W 122°25'0 0.0
2015-Apr-26 22:30N 37°55' W 122°25'0 0.3
2015-Apr-26 21:32N 37°55' W 122°25'1 1.2
2015-Apr-26 20:33N 37°55' W 122°26'1010.0
2015-Apr-26 19:32N 38°03' W 122°18'10 0.5
2015-Apr-26 00:16N 38°03' W 122°06'2 2.8
2015-Apr-25 23:33N 38°02' W 122°08'6 6.3
2015-Apr-25 22:33N 38°03' W 122°16'9 8.4
2015-Apr-25 21:32N 37°59' W 122°25'4 4.3
2015-Apr-25 20:31N 37°55' W 122°26'0 0.3
2015-Apr-25 19:33N 37°55' W 122°26'0 0.0
2015-Apr-25 18:33N 37°55' W 122°26'0 0.0
2015-Apr-25 17:33N 37°55' W 122°26'0 0.0
2015-Apr-25 16:30N 37°55' W 122°26'0 0.0
2015-Apr-25 15:30N 37°55' W 122°26'0 0.1
2015-Apr-25 14:24N 37°55' W 122°26'0 0.1
2015-Apr-25 13:33N 37°55' W 122°26'0 0.0
2015-Apr-25 12:33N 37°55' W 122°26'0 0.0
2015-Apr-25 11:30N 37°55' W 122°26'0 0.0
2015-Apr-25 10:30N 37°55' W 122°26'0 0.0
2015-Apr-25 09:30N 37°55' W 122°26'0 0.0
2015-Apr-25 08:30N 37°55' W 122°26'0 0.0
2015-Apr-25 07:30N 37°55' W 122°26'0 0.0
2015-Apr-25 05:18N 37°55' W 122°26'0 0.1
2015-Apr-25 04:30N 37°55' W 122°26'0 0.0
2015-Apr-25 03:03N 37°55' W 122°26'0 0.0
2015-Apr-25 02:27N 37°55' W 122°26'0 0.0
2015-Apr-25 01:21N 37°55' W 122°26'0 0.1
2015-Apr-24 23:33N 37°55' W 122°26'1 1.2
2015-Apr-24 22:33N 37°55' W 122°25'0 0.2
2015-Apr-24 21:17N 37°55' W 122°25'0 0.0
2015-Apr-24 20:32N 37°55' W 122°25'0 0.0
2015-Apr-24 17:32N 37°55' W 122°25'0 0.0
2015-Apr-24 16:17N 37°55' W 122°25'0 0.0
2015-Apr-24 15:32N 37°55' W 122°25'0 0.0
2015-Apr-24 13:32N 37°55' W 122°25'0 0.0
2015-Apr-24 12:26N 37°55' W 122°25'0 0.0
2015-Apr-24 11:29N 37°55' W 122°25'0 0.0
2015-Apr-24 10:29N 37°55' W 122°25'0 0.0
2015-Apr-24 09:17N 37°55' W 122°25'0 0.0
2015-Apr-24 08:11N 37°55' W 122°25'0 0.0
2015-Apr-24 06:17N 37°55' W 122°25'0 0.1
2015-Apr-24 03:33N 37°55' W 122°25'1 1.1
2015-Apr-24 02:32N 37°56' W 122°26'9 9.0
2015-Apr-24 01:33N 38°03' W 122°19'10 0.4
2015-Apr-23 03:25N 38°03' W 122°06'4 3.2
2015-Apr-23 02:06N 38°03' W 122°12'3 5.9
2015-Apr-23 01:33N 38°04' W 122°16'7 7.2
2015-Apr-23 00:33N 38°01' W 122°24'6 5.9
2015-Apr-22 23:32N 37°55' W 122°26'0 0.2
2015-Apr-22 22:32N 37°55' W 122°26'0 0.0
2015-Apr-22 21:32N 37°55' W 122°26'0 0.1
2015-Apr-22 20:29N 37°55' W 122°26'0 0.0
2015-Apr-22 19:32N 37°55' W 122°26'0 0.0
2015-Apr-22 18:32N 37°55' W 122°26'0 0.0
2015-Apr-22 17:32N 37°55' W 122°26'0 0.0
2015-Apr-22 16:32N 37°55' W 122°26'0 0.0
2015-Apr-22 15:29N 37°55' W 122°26'0 0.1
2015-Apr-22 14:32N 37°55' W 122°26'0 0.0
2015-Apr-22 13:32N 37°55' W 122°26'0 0.0
2015-Apr-22 12:32N 37°55' W 122°26'0 0.1
2015-Apr-22 11:32N 37°55' W 122°26'0 0.1
2015-Apr-22 10:29N 37°55' W 122°26'0 0.0
2015-Apr-22 09:32N 37°55' W 122°26'0 0.0
2015-Apr-22 08:32N 37°55' W 122°26'0 0.0
2015-Apr-22 07:32N 37°55' W 122°26'0 0.0
2015-Apr-22 06:32N 37°55' W 122°26'0 0.0
2015-Apr-22 05:32N 37°55' W 122°26'0 0.1
2015-Apr-22 04:29N 37°55' W 122°26'0 0.1
2015-Apr-22 03:33N 37°55' W 122°26'1 1.1
2015-Apr-22 02:33N 37°55' W 122°25'0 0.1
2015-Apr-22 01:33N 37°55' W 122°25'0 0.0
2015-Apr-22 00:33N 37°55' W 122°25'0 0.0
2015-Apr-21 23:33N 37°55' W 122°25'0 0.0
2015-Apr-21 22:33N 37°55' W 122°25'0 0.0
2015-Apr-21 21:33N 37°55' W 122°25'0 0.0
2015-Apr-21 20:24N 37°55' W 122°25'0 0.0
2015-Apr-21 19:33N 37°55' W 122°25'0 0.0
2015-Apr-21 18:33N 37°55' W 122°25'0 0.0
2015-Apr-21 17:33N 37°55' W 122°25'0 0.0
2015-Apr-21 16:27N 37°55' W 122°25'0 0.0
2015-Apr-21 15:33N 37°55' W 122°25'0 0.0
2015-Apr-21 14:33N 37°55' W 122°25'0 0.0
2015-Apr-21 13:33N 37°55' W 122°25'0 0.0
2015-Apr-21 12:33N 37°55' W 122°25'0 0.0
2015-Apr-21 11:32N 37°55' W 122°25'0 0.0
2015-Apr-21 10:32N 37°55' W 122°25'0 0.0
2015-Apr-21 09:32N 37°55' W 122°25'0 0.0
2015-Apr-21 08:33N 37°55' W 122°25'0 0.0
2015-Apr-21 07:32N 37°55' W 122°25'0 0.0
2015-Apr-21 06:32N 37°55' W 122°25'0 0.0
2015-Apr-21 05:32N 37°55' W 122°25'0 0.0
2015-Apr-21 04:32N 37°55' W 122°25'0 0.0
2015-Apr-21 03:32N 37°55' W 122°25'0 0.0
2015-Apr-21 02:29N 37°55' W 122°25'0 0.1
2015-Apr-21 01:33N 37°55' W 122°25'1 1.3
2015-Apr-21 00:33N 37°54' W 122°26'0 0.3
2015-Apr-20 23:31N 37°55' W 122°26'0 0.1
2015-Apr-20 22:31N 37°55' W 122°26'0 0.0
2015-Apr-20 21:31N 37°55' W 122°26'0 0.0
2015-Apr-20 20:31N 37°55' W 122°26'0 0.0
2015-Apr-20 19:31N 37°55' W 122°26'0 0.0
2015-Apr-20 18:31N 37°55' W 122°26'0 0.0
2015-Apr-20 17:31N 37°55' W 122°26'4 4.2
2015-Apr-20 16:33N 37°51' W 122°26'10 9.7
2015-Apr-20 15:33N 37°46' W 122°37'10 9.7
2015-Apr-20 14:33N 37°48' W 122°49'1010.5
2015-Apr-20 13:33N 37°53' W 123°00'1010.1
2015-Apr-20 12:33N 37°58' W 123°12'1010.4
2015-Apr-20 11:34N 38°06' W 123°20'1010.3
2015-Apr-20 10:33N 38°15' W 123°27'1010.1
2015-Apr-20 09:33N 38°24' W 123°33'1110.4
2015-Apr-20 08:33N 38°33' W 123°39'1010.2
2015-Apr-20 07:32N 38°42' W 123°45'29 9.7
2015-Apr-20 04:32N 39°09' W 124°00'  
Track history (hours):
 
Tides and Currents Weather Stations Pressure Air Temp Water Temp Dewpoint Dewpoint Depression Visibility Wind Speed Wind Dir Waves Ship Positions

Cochise

Owner: Sause Bros, Coos Bay, OR. More information available from US FCC via Universal Licensing System and Coast Guard Vessel Documentation Center.

Last reported at 2015-Apr-28 01:20 UTC. Time now 2015-Apr-28 15:56 UTC.
Position N 38°03' W 122°06'.

Length 32 m; draft 4.8 m.

Type: Towing. MMSI: 367304990.

Date/timePositionNaut miles runAvg speedWind from/ knotsBaromVisibWave heightAir tempDewpointWater temp
2015-Apr-28 01:20N 38°03' W 122°06'1 0.7
2015-Apr-28 00:33N 38°03' W 122°07'6 5.7
2015-Apr-27 23:33N 38°04' W 122°14'6 6.1
2015-Apr-27 22:33N 38°02' W 122°21'7 6.6
2015-Apr-27 21:33N 37°57' W 122°27'3 3.2
2015-Apr-27 20:33N 37°54' W 122°26'0 0.1
2015-Apr-27 19:31N 37°54' W 122°26'1 1.0
2015-Apr-27 18:33N 37°55' W 122°25'1 0.7
2015-Apr-27 17:33N 37°55' W 122°25'0 0.3
2015-Apr-27 16:30N 37°55' W 122°25'0 0.0
2015-Apr-27 15:30N 37°55' W 122°25'0 0.0
2015-Apr-27 14:30N 37°55' W 122°25'0 0.0
2015-Apr-27 13:24N 37°55' W 122°25'0 0.0
2015-Apr-27 12:30N 37°55' W 122°25'0 0.0
2015-Apr-27 11:24N 37°55' W 122°25'0 0.0
2015-Apr-27 10:30N 37°55' W 122°25'0 0.0
2015-Apr-27 09:24N 37°55' W 122°25'0 0.0
2015-Apr-27 07:27N 37°55' W 122°25'0 0.0
2015-Apr-27 06:12N 37°55' W 122°25'0 0.0
2015-Apr-27 03:15N 37°55' W 122°25'0 0.0
2015-Apr-27 02:24N 37°55' W 122°25'0 0.0
2015-Apr-27 01:09N 37°55' W 122°25'0 0.0
2015-Apr-27 00:30N 37°55' W 122°25'0 0.0
2015-Apr-26 23:30N 37°55' W 122°25'0 0.0
2015-Apr-26 22:30N 37°55' W 122°25'0 0.3
2015-Apr-26 21:32N 37°55' W 122°25'1 1.2
2015-Apr-26 20:33N 37°55' W 122°26'1010.0
2015-Apr-26 19:32N 38°03' W 122°18'10 0.5
2015-Apr-26 00:16N 38°03' W 122°06'2 2.8
2015-Apr-25 23:33N 38°02' W 122°08'6 6.3
2015-Apr-25 22:33N 38°03' W 122°16'9 8.4
2015-Apr-25 21:32N 37°59' W 122°25'4 4.3
2015-Apr-25 20:31N 37°55' W 122°26'0 0.3
2015-Apr-25 19:33N 37°55' W 122°26'0 0.0
2015-Apr-25 18:33N 37°55' W 122°26'0 0.0
2015-Apr-25 17:33N 37°55' W 122°26'0 0.0
2015-Apr-25 16:30N 37°55' W 122°26'0 0.0
2015-Apr-25 15:30N 37°55' W 122°26'0 0.1
2015-Apr-25 14:24N 37°55' W 122°26'0 0.1
2015-Apr-25 13:33N 37°55' W 122°26'0 0.0
2015-Apr-25 12:33N 37°55' W 122°26'0 0.0
2015-Apr-25 11:30N 37°55' W 122°26'0 0.0
2015-Apr-25 10:30N 37°55' W 122°26'0 0.0
2015-Apr-25 09:30N 37°55' W 122°26'0 0.0
2015-Apr-25 08:30N 37°55' W 122°26'0 0.0
2015-Apr-25 07:30N 37°55' W 122°26'0 0.0
2015-Apr-25 05:18N 37°55' W 122°26'0 0.1
2015-Apr-25 04:30N 37°55' W 122°26'0 0.0
2015-Apr-25 03:03N 37°55' W 122°26'0 0.0
2015-Apr-25 02:27N 37°55' W 122°26'0 0.0
2015-Apr-25 01:21N 37°55' W 122°26'0 0.1
2015-Apr-24 23:33N 37°55' W 122°26'1 1.2
2015-Apr-24 22:33N 37°55' W 122°25'0 0.2
2015-Apr-24 21:17N 37°55' W 122°25'0 0.0
2015-Apr-24 20:32N 37°55' W 122°25'0 0.0
2015-Apr-24 17:32N 37°55' W 122°25'0 0.0
2015-Apr-24 16:17N 37°55' W 122°25'0 0.0
2015-Apr-24 15:32N 37°55' W 122°25'0 0.0
2015-Apr-24 13:32N 37°55' W 122°25'0 0.0
2015-Apr-24 12:26N 37°55' W 122°25'0 0.0
2015-Apr-24 11:29N 37°55' W 122°25'0 0.0
2015-Apr-24 10:29N 37°55' W 122°25'0 0.0
2015-Apr-24 09:17N 37°55' W 122°25'0 0.0
2015-Apr-24 08:11N 37°55' W 122°25'0 0.0
2015-Apr-24 06:17N 37°55' W 122°25'0 0.1
2015-Apr-24 03:33N 37°55' W 122°25'1 1.1
2015-Apr-24 02:32N 37°56' W 122°26'9 9.0
2015-Apr-24 01:33N 38°03' W 122°19'10 0.4
2015-Apr-23 03:25N 38°03' W 122°06'4 3.2
2015-Apr-23 02:06N 38°03' W 122°12'3 5.9
2015-Apr-23 01:33N 38°04' W 122°16'7 7.2
2015-Apr-23 00:33N 38°01' W 122°24'6 5.9
2015-Apr-22 23:32N 37°55' W 122°26'0 0.2
2015-Apr-22 22:32N 37°55' W 122°26'0 0.0
2015-Apr-22 21:32N 37°55' W 122°26'0 0.1
2015-Apr-22 20:29N 37°55' W 122°26'0 0.0
2015-Apr-22 19:32N 37°55' W 122°26'0 0.0
2015-Apr-22 18:32N 37°55' W 122°26'0 0.0
2015-Apr-22 17:32N 37°55' W 122°26'0 0.0
2015-Apr-22 16:32N 37°55' W 122°26'0 0.0
2015-Apr-22 15:29N 37°55' W 122°26'0 0.1
2015-Apr-22 14:32N 37°55' W 122°26'0 0.0
2015-Apr-22 13:32N 37°55' W 122°26'0 0.0
2015-Apr-22 12:32N 37°55' W 122°26'0 0.1
2015-Apr-22 11:32N 37°55' W 122°26'0 0.1
2015-Apr-22 10:29N 37°55' W 122°26'0 0.0
2015-Apr-22 09:32N 37°55' W 122°26'0 0.0
2015-Apr-22 08:32N 37°55' W 122°26'0 0.0
2015-Apr-22 07:32N 37°55' W 122°26'0 0.0
2015-Apr-22 06:32N 37°55' W 122°26'0 0.0
2015-Apr-22 05:32N 37°55' W 122°26'0 0.1
2015-Apr-22 04:29N 37°55' W 122°26'0 0.1
2015-Apr-22 03:33N 37°55' W 122°26'1 1.1
2015-Apr-22 02:33N 37°55' W 122°25'0 0.1
2015-Apr-22 01:33N 37°55' W 122°25'0 0.0
2015-Apr-22 00:33N 37°55' W 122°25'0 0.0
2015-Apr-21 23:33N 37°55' W 122°25'0 0.0
2015-Apr-21 22:33N 37°55' W 122°25'0 0.0
2015-Apr-21 21:33N 37°55' W 122°25'0 0.0
2015-Apr-21 20:24N 37°55' W 122°25'0 0.0
2015-Apr-21 19:33N 37°55' W 122°25'0 0.0
2015-Apr-21 18:33N 37°55' W 122°25'0 0.0
2015-Apr-21 17:33N 37°55' W 122°25'0 0.0
2015-Apr-21 16:27N 37°55' W 122°25'0 0.0
2015-Apr-21 15:33N 37°55' W 122°25'0 0.0
2015-Apr-21 14:33N 37°55' W 122°25'0 0.0
2015-Apr-21 13:33N 37°55' W 122°25'0 0.0
2015-Apr-21 12:33N 37°55' W 122°25'0 0.0
2015-Apr-21 11:32N 37°55' W 122°25'0 0.0
2015-Apr-21 10:32N 37°55' W 122°25'0 0.0
2015-Apr-21 09:32N 37°55' W 122°25'0 0.0
2015-Apr-21 08:33N 37°55' W 122°25'0 0.0
2015-Apr-21 07:32N 37°55' W 122°25'0 0.0
2015-Apr-21 06:32N 37°55' W 122°25'0 0.0
2015-Apr-21 05:32N 37°55' W 122°25'0 0.0
2015-Apr-21 04:32N 37°55' W 122°25'0 0.0
2015-Apr-21 03:32N 37°55' W 122°25'0 0.0
2015-Apr-21 02:29N 37°55' W 122°25'0 0.1
2015-Apr-21 01:33N 37°55' W 122°25'1 1.3
2015-Apr-21 00:33N 37°54' W 122°26'0 0.3
2015-Apr-20 23:31N 37°55' W 122°26'0 0.1
2015-Apr-20 22:31N 37°55' W 122°26'0 0.0
2015-Apr-20 21:31N 37°55' W 122°26'0 0.0
2015-Apr-20 20:31N 37°55' W 122°26'0 0.0
2015-Apr-20 19:31N 37°55' W 122°26'0 0.0
2015-Apr-20 18:31N 37°55' W 122°26'0 0.0
2015-Apr-20 17:31N 37°55' W 122°26'4 4.2
2015-Apr-20 16:33N 37°51' W 122°26'10 9.7
2015-Apr-20 15:33N 37°46' W 122°37'10 9.7
2015-Apr-20 14:33N 37°48' W 122°49'1010.5
2015-Apr-20 13:33N 37°53' W 123°00'1010.1
2015-Apr-20 12:33N 37°58' W 123°12'1010.4
2015-Apr-20 11:34N 38°06' W 123°20'1010.3
2015-Apr-20 10:33N 38°15' W 123°27'1010.1
2015-Apr-20 09:33N 38°24' W 123°33'1110.4
2015-Apr-20 08:33N 38°33' W 123°39'1010.2
2015-Apr-20 07:32N 38°42' W 123°45'29 9.7
2015-Apr-20 04:32N 39°09' W 124°00'  

Dump ship's entire track history